Time;durP1;ratioP1;P1;durP2;ratioP2;P2;SDS_P1;SDS_P2;PMS_P1;PMS_P2;Temp;Humidity;BMP_temperature;BMP_pressure;BME280_temperature;BME280_humidity;BME280_pressure;Samples;Min_cycle;Max_cycle;Signal;HPM_P1;HPM_P2
2021/06/16 00:00:39;;;;;;;;;;;;;;;26.90;44.41;99816.56;5006987;28;1015;-34
2021/06/16 00:03:04;;;;;;;;;;;;;;;26.86;44.77;99820.72;4999360;28;777;-29
2021/06/16 00:05:30;;;;;;;;;;;;;;;26.76;44.81;99813.00;4999803;28;823;-31
2021/06/16 00:07:55;;;;;;;;;;;;;;;26.77;45.11;99823.63;4999588;28;796;-31
2021/06/16 00:10:21;;;;;;;;;;;;;;;26.76;45.23;99819.22;5023121;28;1910;-33
2021/06/16 00:12:47;;;;;;;;;;;;;;;26.77;44.98;99826.31;5038874;28;922;-33
2021/06/16 00:15:14;;;;;;;;;;;;;;;26.73;44.85;99835.00;5029558;28;1081;-32
2021/06/16 00:17:39;;;;;;;;;;;;;;;26.82;44.79;99846.44;5018792;28;791;-29
2021/06/16 00:20:04;;;;;;;;;;;;;;;26.77;45.04;99850.59;5018569;28;871;-34
2021/06/16 00:22:30;;;;;;;;;;;;;;;26.76;44.85;99842.69;5018752;28;915;-34
2021/06/16 00:24:55;;;;;;;;;;;;;;;26.78;44.91;99837.91;5018702;28;792;-30
2021/06/16 00:27:20;;;;;;;;;;;;;;;26.80;44.90;99845.81;5018953;28;1460;-34
2021/06/16 00:29:46;;;;;;;;;;;;;;;26.81;44.90;99836.69;5013387;28;1921;-31
2021/06/16 00:32:11;;;;;;;;;;;;;;;26.76;44.84;99846.22;4998827;28;769;-34
2021/06/16 00:34:38;;;;;;;;;;;;;;;26.76;45.17;99837.28;4999311;28;828;-34
2021/06/16 00:37:03;;;;;;;;;;;;;;;26.74;44.96;99845.56;4998763;28;852;-31
2021/06/16 00:39:29;;;;;;;;;;;;;;;26.76;44.94;99840.81;4998957;28;855;-32
2021/06/16 00:41:54;;;;;;;;;;;;;;;26.79;44.89;99850.38;4999240;28;748;-29
2021/06/16 00:44:19;;;;;;;;;;;;;;;26.81;44.81;99848.28;4998937;28;964;-33
2021/06/16 00:46:45;;;;;;;;;;;;;;;26.76;45.00;99848.06;5018280;28;804;-33
2021/06/16 00:49:10;;;;;;;;;;;;;;;26.82;44.74;99841.88;5018310;28;1977;-28
2021/06/16 00:51:35;;;;;;;;;;;;;;;26.78;44.88;99838.75;5018574;28;879;-31
2021/06/16 00:54:01;;;;;;;;;;;;;;;26.84;44.67;99833.59;5018785;28;819;-29
2021/06/16 00:56:26;;;;;;;;;;;;;;;26.81;44.76;99840.19;5018379;28;812;-31
2021/06/16 00:58:51;;;;;;;;;;;;;;;26.83;44.74;99837.28;5018406;28;757;-34
2021/06/16 01:01:16;;;;;;;;;;;;;;;26.78;44.88;99840.63;5000152;28;957;-31
2021/06/16 01:03:42;;;;;;;;;;;;;;;26.81;45.08;99842.09;4998152;28;840;-31
2021/06/16 01:06:14;;;;;;;;;;;;;;;26.75;45.14;99849.13;4981361;28;821;-33
2021/06/16 01:08:42;;;;;;;;;;;;;;;26.81;44.77;99845.59;4998276;28;832;-32
2021/06/16 01:11:10;;;;;;;;;;;;;;;26.85;44.93;99848.72;5034704;28;1973;-29
2021/06/16 01:13:40;;;;;;;;;;;;;;;26.82;44.78;99851.84;5037891;28;753;-32
2021/06/16 01:16:06;;;;;;;;;;;;;;;26.74;44.80;99844.75;5006291;28;996;-33
2021/06/16 01:18:33;;;;;;;;;;;;;;;26.79;44.86;99839.59;4998528;28;761;-29
2021/06/16 01:20:58;;;;;;;;;;;;;;;26.78;44.83;99841.44;4980430;28;864;-33
2021/06/16 01:23:33;;;;;;;;;;;;;;;26.78;45.14;99835.22;4997986;28;789;-34
2021/06/16 01:26:01;;;;;;;;;;;;;;;26.76;44.99;99835.41;4998072;28;872;-31
2021/06/16 01:28:37;;;;;;;;;;;;;;;26.73;45.04;99837.69;4998564;28;765;-34
2021/06/16 01:31:02;;;;;;;;;;;;;;;26.72;45.01;99841.44;4978741;28;1910;-34
2021/06/16 01:33:28;;;;;;;;;;;;;;;26.76;44.97;99845.38;4980596;28;876;-34
2021/06/16 01:35:53;;;;;;;;;;;;;;;26.74;45.18;99853.66;4998479;28;784;-34
2021/06/16 01:38:19;;;;;;;;;;;;;;;26.81;44.83;99853.69;4980200;28;1244;-31
2021/06/16 01:40:45;;;;;;;;;;;;;;;26.78;45.07;99848.72;4997747;28;812;-31
2021/06/16 01:43:10;;;;;;;;;;;;;;;26.86;44.57;99851.22;4980324;28;909;-33
2021/06/16 01:45:36;;;;;;;;;;;;;;;26.80;44.82;99846.66;4979742;28;980;-32
2021/06/16 01:48:01;;;;;;;;;;;;;;;26.82;44.71;99857.22;4980131;28;799;-30
2021/06/16 01:50:27;;;;;;;;;;;;;;;26.65;45.16;99847.66;4997395;28;1965;-30
2021/06/16 01:52:53;;;;;;;;;;;;;;;26.73;45.13;99854.72;4979857;28;1300;-31
2021/06/16 01:55:18;;;;;;;;;;;;;;;26.72;45.29;99858.47;4997689;28;764;-31
2021/06/16 01:57:44;;;;;;;;;;;;;;;26.70;45.15;99854.28;4980353;28;844;-29
2021/06/16 02:00:09;;;;;;;;;;;;;;;26.72;44.94;99860.31;4996418;28;1016;-33
2021/06/16 02:02:35;;;;;;;;;;;;;;;26.77;44.80;99864.09;4979891;28;1531;-32
2021/06/16 02:05:00;;;;;;;;;;;;;;;26.73;44.82;99859.28;4979884;28;1156;-30
2021/06/16 02:07:26;;;;;;;;;;;;;;;26.80;44.75;99862.00;4997077;28;839;-33
2021/06/16 02:09:51;;;;;;;;;;;;;;;26.84;44.98;99865.97;4995572;28;1906;-33
2021/06/16 02:12:17;;;;;;;;;;;;;;;26.80;44.88;99868.22;5036615;28;804;-30
2021/06/16 02:14:44;;;;;;;;;;;;;;;26.77;45.07;99874.03;5027970;28;1283;-31
2021/06/16 02:17:12;;;;;;;;;;;;;;;26.77;44.90;99874.88;4979735;28;1544;-33
2021/06/16 02:19:38;;;;;;;;;;;;;;;26.80;44.72;99870.09;4980274;28;805;-28
2021/06/16 02:22:04;;;;;;;;;;;;;;;26.75;44.84;99871.53;4996550;28;753;-32
2021/06/16 02:24:29;;;;;;;;;;;;;;;26.78;44.98;99879.22;4997355;28;768;-29
2021/06/16 02:26:55;;;;;;;;;;;;;;;26.81;44.85;99883.38;4997362;28;793;-30
2021/06/16 02:29:20;;;;;;;;;;;;;;;26.76;44.91;99866.97;4996489;28;1915;-31
2021/06/16 02:31:45;;;;;;;;;;;;;;;26.75;44.90;99871.53;4996941;28;788;-32
2021/06/16 02:34:11;;;;;;;;;;;;;;;26.80;44.82;99875.47;4997458;28;788;-31
2021/06/16 02:36:37;;;;;;;;;;;;;;;26.88;44.79;99872.59;4997071;28;753;-33
2021/06/16 02:39:04;;;;;;;;;;;;;;;26.82;44.79;99873.44;4979524;28;793;-29
2021/06/16 02:41:29;;;;;;;;;;;;;;;26.84;44.98;99879.47;4996664;28;820;-31
2021/06/16 02:43:55;;;;;;;;;;;;;;;26.72;45.17;99879.19;4997000;28;761;-31
2021/06/16 02:46:20;;;;;;;;;;;;;;;26.80;45.00;99889.81;4996025;28;926;-31
2021/06/16 02:48:47;;;;;;;;;;;;;;;26.76;44.85;99885.84;4979521;28;908;-30
2021/06/16 02:51:12;;;;;;;;;;;;;;;26.78;44.90;99881.09;4996740;28;1894;-29
2021/06/16 02:53:38;;;;;;;;;;;;;;;26.76;44.78;99881.28;4996654;28;737;-30
2021/06/16 02:56:04;;;;;;;;;;;;;;;26.70;45.14;99884.81;4996812;28;868;-30
2021/06/16 02:58:29;;;;;;;;;;;;;;;26.76;44.71;99880.44;4979627;28;808;-31
2021/06/16 03:00:56;;;;;;;;;;;;;;;26.75;44.79;99879.63;4979113;28;993;-32
2021/06/16 03:03:22;;;;;;;;;;;;;;;26.79;44.98;99885.47;4996674;28;969;-33
2021/06/16 03:05:48;;;;;;;;;;;;;;;26.74;44.80;99885.22;4979543;28;844;-32
2021/06/16 03:08:14;;;;;;;;;;;;;;;26.74;44.97;99893.31;4996543;28;805;-33
2021/06/16 03:10:39;;;;;;;;;;;;;;;26.81;44.97;99894.16;5025365;28;1922;-27
2021/06/16 03:13:04;;;;;;;;;;;;;;;26.64;44.09;99896.41;5018940;28;799;-30
2021/06/16 03:15:30;;;;;;;;;;;;;;;26.55;43.71;99898.44;5014470;28;1099;-32
2021/06/16 03:17:55;;;;;;;;;;;;;;;26.04;44.23;99893.13;4979486;28;730;-32
2021/06/16 03:20:21;;;;;;;;;;;;;;;25.85;44.24;99896.50;5001178;28;1165;-34
2021/06/16 03:22:46;;;;;;;;;;;;;;;25.70;44.78;99889.34;5035433;28;801;-33
2021/06/16 03:25:12;;;;;;;;;;;;;;;25.67;44.73;99895.13;5018329;28;814;-34
2021/06/16 03:27:38;;;;;;;;;;;;;;;25.58;44.71;99890.84;5036012;28;760;-30
2021/06/16 03:30:03;;;;;;;;;;;;;;;25.61;45.03;99895.88;5004098;28;1918;-30
2021/06/16 03:32:29;;;;;;;;;;;;;;;25.51;45.23;99902.41;4996291;28;790;-32
2021/06/16 03:34:54;;;;;;;;;;;;;;;25.54;44.82;99896.63;4978994;28;1065;-32
2021/06/16 03:37:20;;;;;;;;;;;;;;;25.37;45.45;99889.84;4996090;28;784;-30
2021/06/16 03:39:45;;;;;;;;;;;;;;;25.39;45.18;99894.00;4979380;28;808;-33
2021/06/16 03:42:11;;;;;;;;;;;;;;;25.37;45.25;99903.31;4978852;28;773;-34
2021/06/16 03:44:36;;;;;;;;;;;;;;;25.27;45.70;99898.25;4977854;28;1273;-34
2021/06/16 03:47:02;;;;;;;;;;;;;;;25.34;45.73;99893.72;4979236;28;812;-32
2021/06/16 03:49:27;;;;;;;;;;;;;;;25.30;45.90;99901.38;5027512;28;1909;-33
2021/06/16 03:51:55;;;;;;;;;;;;;;;25.28;45.97;99895.34;5035363;28;973;-33
2021/06/16 03:54:20;;;;;;;;;;;;;;;25.31;46.32;99902.19;5020145;28;740;-32
2021/06/16 03:56:46;;;;;;;;;;;;;;;25.73;45.22;99901.56;5014118;28;1432;-32
2021/06/16 03:59:11;;;;;;;;;;;;;;;25.94;44.54;99916.06;4985364;28;865;-31
2021/06/16 04:01:39;;;;;;;;;;;;;;;25.86;44.28;99904.38;5017802;28;953;-33
2021/06/16 04:04:05;;;;;;;;;;;;;;;25.80;44.41;99911.41;5019171;28;760;-32
2021/06/16 04:06:31;;;;;;;;;;;;;;;25.71;44.55;99917.13;5001513;28;808;-32
2021/06/16 04:08:56;;;;;;;;;;;;;;;25.71;44.64;99926.00;4999405;28;1118;-32
2021/06/16 04:11:21;;;;;;;;;;;;;;;25.63;44.80;99929.69;5038883;28;1957;-33
2021/06/16 04:13:47;;;;;;;;;;;;;;;25.65;44.74;99933.03;5038327;28;1252;-35
2021/06/16 04:16:12;;;;;;;;;;;;;;;25.64;44.55;99936.72;4988649;28;893;-33
2021/06/16 04:18:38;;;;;;;;;;;;;;;25.06;46.05;99935.69;5019045;28;796;-34
2021/06/16 04:21:04;;;;;;;;;;;;;;;24.67;46.86;99937.66;5018854;28;777;-35
2021/06/16 04:23:30;;;;;;;;;;;;;;;24.72;47.23;99939.81;5018646;28;809;-32
2021/06/16 04:25:56;;;;;;;;;;;;;;;24.89;46.39;99935.03;5018919;28;807;-33
2021/06/16 04:28:21;;;;;;;;;;;;;;;24.62;46.73;99933.88;5018858;28;797;-29
2021/06/16 04:30:46;;;;;;;;;;;;;;;24.63;46.21;99931.00;5018007;28;2029;-33
2021/06/16 04:33:12;;;;;;;;;;;;;;;24.56;46.20;99933.59;5018511;28;783;-33
2021/06/16 04:35:37;;;;;;;;;;;;;;;24.50;46.53;99933.50;5018654;28;1087;-34
2021/06/16 04:38:02;;;;;;;;;;;;;;;24.49;46.62;99927.25;5018865;28;768;-31
2021/06/16 04:40:27;;;;;;;;;;;;;;;24.60;46.42;99923.28;5018213;28;821;-32
2021/06/16 04:42:53;;;;;;;;;;;;;;;24.34;46.97;99917.34;5018276;28;781;-35
2021/06/16 04:45:18;;;;;;;;;;;;;;;24.30;46.93;99907.16;5008922;28;925;-40
2021/06/16 04:47:44;;;;;;;;;;;;;;;24.24;46.83;99914.09;4999064;28;836;-40
2021/06/16 04:50:09;;;;;;;;;;;;;;;24.23;46.80;99909.75;4998641;28;1906;-37
2021/06/16 04:52:35;;;;;;;;;;;;;;;24.26;46.87;99909.38;4998670;28;740;-38
2021/06/16 04:55:00;;;;;;;;;;;;;;;24.08;47.01;99910.53;4998513;28;785;-33
2021/06/16 04:57:25;;;;;;;;;;;;;;;24.07;47.13;99921.47;4981019;28;880;-31
2021/06/16 04:59:51;;;;;;;;;;;;;;;24.09;47.23;99914.88;4997747;28;981;-32
2021/06/16 05:02:16;;;;;;;;;;;;;;;24.00;47.46;99921.38;4998521;28;895;-36
2021/06/16 05:04:41;;;;;;;;;;;;;;;24.00;47.20;99920.53;4997517;28;781;-37
2021/06/16 05:07:06;;;;;;;;;;;;;;;24.01;47.17;99923.03;4997618;28;785;-32
2021/06/16 05:09:32;;;;;;;;;;;;;;;23.80;47.87;99921.88;5009125;28;1905;-38
2021/06/16 05:11:57;;;;;;;;;;;;;;;24.02;47.48;99940.84;5038199;28;864;-37
2021/06/16 05:14:24;;;;;;;;;;;;;;;23.73;47.91;99939.72;5034108;28;1170;-33
2021/06/16 05:16:49;;;;;;;;;;;;;;;24.06;47.04;99947.50;4998416;28;784;-36
2021/06/16 05:19:20;;;;;;;;;;;;;;;23.74;47.97;99944.06;4998587;28;836;-35
2021/06/16 05:21:46;;;;;;;;;;;;;;;23.77;47.82;99940.19;4998040;28;776;-38
2021/06/16 05:24:11;;;;;;;;;;;;;;;23.72;47.88;99940.75;4998473;28;765;-38
2021/06/16 05:26:37;;;;;;;;;;;;;;;23.87;47.45;99929.19;4998362;28;792;-37
2021/06/16 05:29:03;;;;;;;;;;;;;;;23.82;47.67;99933.25;5004100;28;843;-35
2021/06/16 05:31:28;;;;;;;;;;;;;;;23.85;48.13;99938.28;4998737;28;1997;-38
2021/06/16 05:33:53;;;;;;;;;;;;;;;23.91;47.62;99939.41;4997956;28;811;-37
2021/06/16 05:36:18;;;;;;;;;;;;;;;23.89;47.60;99933.38;4997710;28;764;-37
2021/06/16 05:38:44;;;;;;;;;;;;;;;23.90;47.87;99950.31;4998343;28;918;-35
2021/06/16 05:41:09;;;;;;;;;;;;;;;24.28;46.80;99947.66;5001090;28;823;-34
2021/06/16 05:43:34;;;;;;;;;;;;;;;24.76;45.53;99949.16;5016924;28;852;-37
2021/06/16 05:46:01;;;;;;;;;;;;;;;25.02;45.00;99952.41;5002304;28;917;-36
2021/06/16 05:48:27;;;;;;;;;;;;;;;25.21;44.47;99950.16;4997447;28;860;-35
2021/06/16 05:50:52;;;;;;;;;;;;;;;25.18;44.44;99954.03;4997332;28;1961;-33
2021/06/16 05:53:17;;;;;;;;;;;;;;;25.05;44.39;99960.94;4997791;28;920;-33
2021/06/16 05:55:42;;;;;;;;;;;;;;;25.21;44.66;99967.09;4997520;28;776;-36
2021/06/16 05:58:08;;;;;;;;;;;;;;;25.21;44.71;99958.22;4997215;28;767;-31
2021/06/16 06:00:33;;;;;;;;;;;;;;;24.89;45.22;99953.06;4997295;28;961;-36
2021/06/16 06:02:58;;;;;;;;;;;;;;;24.88;45.48;99960.28;4997446;28;753;-35
2021/06/16 06:05:25;;;;;;;;;;;;;;;24.92;44.76;99947.31;4997132;28;816;-35
2021/06/16 06:07:50;;;;;;;;;;;;;;;24.76;44.04;99943.78;4997303;28;958;-34
2021/06/16 06:10:15;;;;;;;;;;;;;;;24.90;43.33;99944.81;5019736;28;1898;-33
2021/06/16 06:12:41;;;;;;;;;;;;;;;25.21;44.05;99952.84;5036468;28;768;-36
2021/06/16 06:15:06;;;;;;;;;;;;;;;25.18;44.70;99940.56;5021356;28;1103;-34
2021/06/16 06:17:32;;;;;;;;;;;;;;;25.13;44.83;99946.53;4996655;28;804;-34
2021/06/16 06:19:58;;;;;;;;;;;;;;;25.24;44.77;99964.03;4996958;28;822;-36
2021/06/16 06:22:23;;;;;;;;;;;;;;;25.29;45.10;99961.63;4997249;28;756;-34
2021/06/16 06:24:48;;;;;;;;;;;;;;;25.41;43.94;99966.50;4997292;28;836;-34
2021/06/16 06:27:13;;;;;;;;;;;;;;;25.30;44.23;99975.91;4997289;28;757;-35
2021/06/16 06:29:39;;;;;;;;;;;;;;;25.44;44.98;99969.66;4996848;28;1981;-37
2021/06/16 06:32:05;;;;;;;;;;;;;;;25.60;44.77;99974.97;4996977;28;844;-34
2021/06/16 06:34:30;;;;;;;;;;;;;;;25.64;45.04;99987.09;4996510;28;964;-34
2021/06/16 06:36:55;;;;;;;;;;;;;;;25.73;45.18;99980.53;4997045;28;788;-35
2021/06/16 06:39:20;;;;;;;;;;;;;;;25.81;45.00;99974.19;4996995;28;852;-36
2021/06/16 06:41:46;;;;;;;;;;;;;;;25.78;44.54;99974.56;4996392;28;789;-36
2021/06/16 06:44:11;;;;;;;;;;;;;;;25.82;44.47;99977.72;4997085;28;997;-33
2021/06/16 06:46:36;;;;;;;;;;;;;;;25.86;44.53;99981.69;4996493;28;1000;-32
2021/06/16 06:49:02;;;;;;;;;;;;;;;25.82;44.73;99983.09;4996808;28;813;-35
2021/06/16 06:51:27;;;;;;;;;;;;;;;25.88;44.81;99975.09;4996814;28;1911;-34
2021/06/16 06:53:53;;;;;;;;;;;;;;;25.93;44.97;99979.88;4996981;28;764;-35
2021/06/16 06:56:18;;;;;;;;;;;;;;;25.94;44.82;99984.25;4996593;28;779;-35
2021/06/16 06:58:43;;;;;;;;;;;;;;;25.92;44.68;99987.13;4996908;28;769;-33
2021/06/16 07:01:09;;;;;;;;;;;;;;;25.97;44.30;99986.56;4996424;28;957;-33
2021/06/16 07:03:34;;;;;;;;;;;;;;;25.94;44.84;99994.19;4996584;28;814;-36
2021/06/16 07:05:59;;;;;;;;;;;;;;;26.01;44.57;99993.22;4996601;28;793;-36
2021/06/16 07:08:25;;;;;;;;;;;;;;;26.06;44.37;99997.22;4996880;28;832;-33
2021/06/16 07:10:50;;;;;;;;;;;;;;;26.03;45.10;100001.94;5028372;28;1906;-36
2021/06/16 07:13:15;;;;;;;;;;;;;;;26.12;44.42;100013.44;5036108;28;880;-34
2021/06/16 07:15:40;;;;;;;;;;;;;;;26.13;44.71;100014.25;5011522;28;1044;-35
2021/06/16 07:18:06;;;;;;;;;;;;;;;25.40;44.22;99898.38;4997018;28;838;-33
2021/06/16 07:20:31;;;;;;;;;;;;;;;26.12;44.06;100012.59;4996413;28;892;-36
2021/06/16 07:22:56;;;;;;;;;;;;;;;26.13;44.52;100019.66;4996795;28;780;-33
2021/06/16 07:25:22;;;;;;;;;;;;;;;26.07;44.89;100002.41;4996619;28;772;-29
2021/06/16 07:27:47;;;;;;;;;;;;;;;26.04;44.75;100014.38;4996686;28;874;-33
2021/06/16 07:30:13;;;;;;;;;;;;;;;26.05;44.48;100020.63;4999276;28;1910;-36
2021/06/16 07:32:38;;;;;;;;;;;;;;;26.06;44.81;100010.69;4982441;28;1028;-33
2021/06/16 07:35:04;;;;;;;;;;;;;;;26.03;44.51;100018.13;4999945;28;831;-34
2021/06/16 07:37:29;;;;;;;;;;;;;;;26.08;44.18;100022.94;5000440;28;811;-33
2021/06/16 07:39:54;;;;;;;;;;;;;;;26.02;44.14;100021.00;5000350;28;765;-35
2021/06/16 07:42:20;;;;;;;;;;;;;;;25.94;44.72;100027.38;4999695;28;812;-37
2021/06/16 07:44:45;;;;;;;;;;;;;;;25.90;44.62;100021.53;5000642;28;902;-35
2021/06/16 07:47:10;;;;;;;;;;;;;;;25.99;43.39;100026.78;5000034;28;824;-36
2021/06/16 07:49:36;;;;;;;;;;;;;;;25.94;44.36;100027.38;4999654;28;1910;-37
2021/06/16 07:52:01;;;;;;;;;;;;;;;25.97;44.57;100020.75;4999940;28;768;-36
2021/06/16 07:54:26;;;;;;;;;;;;;;;26.03;44.61;100030.75;5000178;28;1492;-33
2021/06/16 07:56:52;;;;;;;;;;;;;;;25.92;44.63;100027.53;5012162;28;919;-36
2021/06/16 07:59:17;;;;;;;;;;;;;;;26.02;44.29;100035.34;5017854;28;996;-33
2021/06/16 08:01:43;;;;;;;;;;;;;;;26.07;43.87;100044.69;4999811;28;847;-34
2021/06/16 08:04:08;;;;;;;;;;;;;;;26.08;44.43;100049.88;4999294;28;730;-33
2021/06/16 08:06:34;;;;;;;;;;;;;;;25.91;43.84;100050.13;5000031;28;800;-35
2021/06/16 08:08:59;;;;;;;;;;;;;;;26.05;44.12;100061.06;5004171;28;1026;-35
2021/06/16 08:11:24;;;;;;;;;;;;;;;26.09;43.86;100051.53;5038472;28;1906;-35
2021/06/16 08:13:50;;;;;;;;;;;;;;;26.19;43.62;100053.94;5038922;28;1115;-31
2021/06/16 08:16:18;;;;;;;;;;;;;;;26.14;43.54;100067.97;5005226;28;968;-32
2021/06/16 08:18:43;;;;;;;;;;;;;;;25.84;41.86;100075.34;4999098;28;809;-35
2021/06/16 08:21:08;;;;;;;;;;;;;;;25.90;42.00;100070.03;4999201;28;689;-37
2021/06/16 08:23:34;;;;;;;;;;;;;;;25.66;42.33;100076.59;4999686;28;796;-36
2021/06/16 08:25:59;;;;;;;;;;;;;;;25.49;42.62;100087.56;4999017;28;919;-33
2021/06/16 08:28:24;;;;;;;;;;;;;;;25.47;42.77;100092.31;4999572;28;761;-36
2021/06/16 08:30:49;;;;;;;;;;;;;;;25.92;42.31;100091.41;4998668;28;1985;-34
2021/06/16 08:33:15;;;;;;;;;;;;;;;26.07;43.37;100085.97;4998956;28;796;-36
2021/06/16 08:35:40;;;;;;;;;;;;;;;26.24;43.77;100088.41;4999573;28;860;-36
2021/06/16 08:38:05;;;;;;;;;;;;;;;26.28;43.69;100077.03;4998969;28;828;-32
2021/06/16 08:40:31;;;;;;;;;;;;;;;26.36;43.65;100077.97;4998451;28;804;-35
2021/06/16 08:42:57;;;;;;;;;;;;;;;26.38;43.15;100086.66;4999183;28;765;-35
2021/06/16 08:45:22;;;;;;;;;;;;;;;26.37;43.46;100091.25;4998720;28;957;-36
2021/06/16 08:47:48;;;;;;;;;;;;;;;26.48;43.01;100094.41;4998455;28;772;-33
2021/06/16 08:50:13;;;;;;;;;;;;;;;26.47;43.26;100106.25;4998911;28;1883;-35
2021/06/16 08:52:38;;;;;;;;;;;;;;;26.51;43.54;100104.81;4981430;28;1333;-31
2021/06/16 08:55:05;;;;;;;;;;;;;;;26.53;43.25;100111.69;4998531;28;796;-36
2021/06/16 08:57:30;;;;;;;;;;;;;;;26.60;43.47;100113.63;4998738;28;804;-34
2021/06/16 08:59:55;;;;;;;;;;;;;;;26.61;43.19;100116.13;4998196;28;949;-34
2021/06/16 09:02:20;;;;;;;;;;;;;;;26.71;42.52;100123.88;4998354;28;973;-32
2021/06/16 09:04:47;;;;;;;;;;;;;;;26.63;43.00;100126.72;4981404;28;741;-32
2021/06/16 09:07:15;;;;;;;;;;;;;;;26.61;43.29;100126.91;4998290;28;796;-35
2021/06/16 09:09:41;;;;;;;;;;;;;;;26.58;43.79;100123.75;5011219;28;1969;-35
2021/06/16 09:12:07;;;;;;;;;;;;;;;26.59;43.32;100120.03;5037896;28;748;-31
2021/06/16 09:14:32;;;;;;;;;;;;;;;26.38;42.77;100125.25;5031518;28;1315;-35
2021/06/16 09:17:01;;;;;;;;;;;;;;;26.42;42.95;100117.63;4998286;28;847;-32
2021/06/16 09:19:30;;;;;;;;;;;;;;;26.58;43.42;100123.75;4998592;28;725;-31
2021/06/16 09:21:57;;;;;;;;;;;;;;;26.65;43.26;100130.06;4998210;28;824;-34
2021/06/16 09:24:23;;;;;;;;;;;;;;;26.63;42.77;100132.94;4997749;28;809;-35
2021/06/16 09:26:48;;;;;;;;;;;;;;;26.73;42.73;100139.84;4980874;28;1498;-32
2021/06/16 09:29:13;;;;;;;;;;;;;;;26.77;43.10;100130.34;4998070;28;961;-36
2021/06/16 09:31:39;;;;;;;;;;;;;;;26.76;42.69;100137.59;4997517;28;1918;-33
2021/06/16 09:34:22;;;;;;;;;;;;;;;26.70;43.14;100121.38;4997602;28;820;-32
2021/06/16 09:36:51;;;;;;;;;;;;;;;26.78;42.97;100145.50;5000615;28;1516;-32
2021/06/16 09:39:23;;;;;;;;;;;;;;;26.79;42.97;100149.88;5010686;28;852;-33
2021/06/16 09:41:54;;;;;;;;;;;;;;;26.87;43.00;100138.94;5017271;28;832;-31
2021/06/16 09:44:39;;;;;;;;;;;;;;;26.77;43.28;100144.69;5015892;28;909;-32
2021/06/16 09:47:23;;;;;;;;;;;;;;;26.84;42.94;100141.19;5007926;28;797;-36
2021/06/16 09:49:53;;;;;;;;;;;;;;;26.93;42.77;100148.09;5017008;28;1905;-31
2021/06/16 09:52:33;;;;;;;;;;;;;;;26.94;43.00;100151.66;4999292;28;896;-31
2021/06/16 09:55:04;;;;;;;;;;;;;;;26.63;42.07;100154.53;5016730;28;803;-32
2021/06/16 09:57:29;;;;;;;;;;;;;;;26.64;42.36;100163.47;5017213;28;820;-33
2021/06/16 09:59:59;;;;;;;;;;;;;;;26.58;42.78;100166.91;5010729;28;949;-36
2021/06/16 10:02:27;;;;;;;;;;;;;;;26.77;42.68;100160.88;4997217;28;827;-38
2021/06/16 10:05:00;;;;;;;;;;;;;;;26.83;42.34;100172.75;4997517;28;780;-36
2021/06/16 10:07:36;;;;;;;;;;;;;;;26.86;42.78;100158.84;4997620;28;773;-36
2021/06/16 10:10:01;;;;;;;;;;;;;;;26.90;42.48;100159.31;5015084;28;1909;-37
2021/06/16 10:12:33;;;;;;;;;;;;;;;26.95;42.38;100166.81;5036918;28;859;-33
2021/06/16 10:14:59;;;;;;;;;;;;;;;27.04;42.58;100172.94;5024235;28;1085;-33
2021/06/16 10:17:24;;;;;;;;;;;;;;;26.84;42.35;100168.19;4996839;28;851;-34
2021/06/16 10:19:50;;;;;;;;;;;;;;;26.61;41.51;100171.94;4997236;28;808;-33
2021/06/16 10:22:15;;;;;;;;;;;;;;;26.74;42.14;100177.44;4997014;28;785;-37
2021/06/16 10:24:40;;;;;;;;;;;;;;;26.78;42.35;100169.78;4997020;28;769;-37
2021/06/16 10:27:09;;;;;;;;;;;;;;;26.84;42.45;100170.88;4997430;28;841;-35
2021/06/16 10:29:37;;;;;;;;;;;;;;;27.18;41.17;100177.38;4979278;28;1890;-36
2021/06/16 10:32:03;;;;;;;;;;;;;;;27.25;40.71;100183.66;4979026;28;817;-37
2021/06/16 10:34:48;;;;;;;;;;;;;;;27.08;41.15;100180.44;4997216;28;730;-32
2021/06/16 10:37:22;;;;;;;;;;;;;;;27.35;40.15;100167.13;4996912;28;1979;-37
2021/06/16 10:40:07;;;;;;;;;;;;;;;26.85;40.96;100176.09;4996927;28;840;-32
2021/06/16 10:42:52;;;;;;;;;;;;;;;27.34;39.16;100176.22;4979782;28;1163;-35
2021/06/16 10:45:18;;;;;;;;;;;;;;;27.02;40.49;100168.56;4995796;28;1403;-32
2021/06/16 10:47:55;;;;;;;;;;;;;;;27.48;38.88;100168.19;4979453;28;514;-33
2021/06/16 10:50:21;;;;;;;;;;;;;;;27.19;40.23;100165.56;4996685;28;1902;-37
2021/06/16 10:53:02;;;;;;;;;;;;;;;27.05;40.51;100167.34;4979570;28;1269;-38
2021/06/16 10:55:27;;;;;;;;;;;;;;;27.07;40.22;100165.28;4997044;28;817;-33
2021/06/16 10:58:14;;;;;;;;;;;;;;;27.01;40.31;100163.31;4979187;28;1381;-38
2021/06/16 11:00:39;;;;;;;;;;;;;;;26.99;40.15;100165.41;4992766;28;972;-31
2021/06/16 11:03:05;;;;;;;;;;;;;;;26.84;40.53;100162.78;4998728;28;728;-37
2021/06/16 11:05:31;;;;;;;;;;;;;;;27.14;39.81;100157.22;5000523;28;1466;-35
2021/06/16 11:07:56;;;;;;;;;;;;;;;26.95;40.22;100162.25;5000564;28;765;-37
2021/06/16 11:10:22;;;;;;;;;;;;;;;27.14;39.61;100176.94;5024707;28;1914;-33
2021/06/16 11:12:53;;;;;;;;;;;;;;;26.94;40.41;100175.94;5040346;28;796;-31
2021/06/16 11:15:25;;;;;;;;;;;;;;;27.09;39.13;100186.69;5021391;28;1286;-32
2021/06/16 11:17:50;;;;;;;;;;;;;;;27.40;38.96;100185.41;5000768;28;836;-34
2021/06/16 11:20:22;;;;;;;;;;;;;;;27.36;38.81;100193.06;5000429;28;737;-36
2021/06/16 11:22:51;;;;;;;;;;;;;;;27.38;38.83;100184.78;5000349;28;834;-36
2021/06/16 11:25:33;;;;;;;;;;;;;;;27.37;39.40;100178.56;5000715;28;788;-33
2021/06/16 11:28:11;;;;;;;;;;;;;;;27.42;39.56;100185.22;5000401;28;745;-34
2021/06/16 11:30:48;;;;;;;;;;;;;;;27.53;39.36;100187.34;4999558;28;1972;-33
2021/06/16 11:33:23;;;;;;;;;;;;;;;27.46;39.42;100175.69;5000034;28;911;-34
2021/06/16 11:35:49;;;;;;;;;;;;;;;27.38;39.49;100182.91;5000308;28;816;-36
2021/06/16 11:38:14;;;;;;;;;;;;;;;27.41;39.29;100183.56;4999800;28;821;-36
2021/06/16 11:40:39;;;;;;;;;;;;;;;27.47;39.16;100175.50;4999879;28;820;-34
2021/06/16 11:43:05;;;;;;;;;;;;;;;27.18;40.25;100174.69;5000308;28;800;-36
2021/06/16 11:45:30;;;;;;;;;;;;;;;27.01;40.65;100182.22;4999767;28;918;-37
2021/06/16 11:47:57;;;;;;;;;;;;;;;26.92;41.02;100181.53;5000257;28;749;-35
2021/06/16 11:50:26;;;;;;;;;;;;;;;26.88;41.05;100170.28;4999854;28;1961;-36
2021/06/16 11:52:55;;;;;;;;;;;;;;;26.86;41.59;100190.44;4999816;28;744;-34
2021/06/16 11:55:40;;;;;;;;;;;;;;;27.05;40.53;100188.94;4999887;28;803;-35
2021/06/16 11:58:24;;;;;;;;;;;;;;;27.08;40.59;100185.00;4982884;28;737;-34
2021/06/16 12:00:52;;;;;;;;;;;;;;;26.94;41.03;100190.28;4999045;28;937;-32
2021/06/16 12:03:17;;;;;;;;;;;;;;;27.33;39.75;100189.94;4999718;28;716;-33
2021/06/16 12:05:43;;;;;;;;;;;;;;;27.24;40.10;100190.09;4999621;28;789;-33
2021/06/16 12:08:08;;;;;;;;;;;;;;;26.77;40.53;100195.97;4999201;28;832;-32
2021/06/16 12:10:33;;;;;;;;;;;;;;;26.52;41.34;100200.91;5026491;28;1956;-37
2021/06/16 12:13:00;;;;;;;;;;;;;;;26.38;41.76;100202.63;5039154;28;827;-37
2021/06/16 12:15:29;;;;;;;;;;;;;;;26.48;41.87;100197.75;5017863;28;1175;-34
2021/06/16 12:17:57;;;;;;;;;;;;;;;26.33;42.41;100200.50;4999633;28;757;-34
2021/06/16 12:20:23;;;;;;;;;;;;;;;26.57;42.21;100201.16;4999358;28;808;-37
2021/06/16 12:22:48;;;;;;;;;;;;;;;26.72;41.99;100205.66;4999156;28;812;-36
2021/06/16 12:25:34;;;;;;;;;;;;;;;26.76;41.24;100205.06;4999469;28;816;-40
2021/06/16 12:27:59;;;;;;;;;;;;;;;26.83;41.43;100212.38;4999020;28;1638;-35
2021/06/16 12:30:28;;;;;;;;;;;;;;;26.77;41.44;100212.16;5007355;28;1914;-33
2021/06/16 12:33:12;;;;;;;;;;;;;;;26.74;41.45;100209.00;5019194;28;804;-41
2021/06/16 12:35:42;;;;;;;;;;;;;;;26.89;40.94;100219.72;5018928;28;816;-33
2021/06/16 12:38:09;;;;;;;;;;;;;;;26.87;41.03;100222.63;5018062;28;869;-37
2021/06/16 12:40:34;;;;;;;;;;;;;;;26.73;41.07;100215.41;5018666;28;828;-37
2021/06/16 12:43:00;;;;;;;;;;;;;;;26.97;40.65;100211.47;5018734;28;962;-37
2021/06/16 12:45:27;;;;;;;;;;;;;;;27.25;39.46;100216.06;5007309;28;972;-37
2021/06/16 12:47:52;;;;;;;;;;;;;;;27.25;38.92;100221.47;4999363;28;777;-40
2021/06/16 12:50:27;;;;;;;;;;;;;;;27.25;38.38;100217.94;4998909;28;1894;-35
2021/06/16 12:52:52;;;;;;;;;;;;;;;27.20;36.94;100223.09;4997979;28;801;-40
2021/06/16 12:55:18;;;;;;;;;;;;;;;27.00;38.06;100221.03;4981345;28;785;-33
2021/06/16 12:57:49;;;;;;;;;;;;;;;27.07;38.07;100226.53;4981126;28;1579;-37